Time;durP1;ratioP1;P1;durP2;ratioP2;P2;SDS_P1;SDS_P2;PMS_P1;PMS_P2;Temp;Humidity;BMP_temperature;BMP_pressure;BME280_temperature;BME280_humidity;BME280_pressure;Samples;Min_cycle;Max_cycle;Signal;HPM_P1;HPM_P2
2022/02/17 00:00:09;;;;;;;0.80;0.40;;;;;;;10.92;94.67;97795.09;108307;1276;71670;-80
2022/02/17 00:02:35;;;;;;;1.30;0.30;;;;;;;10.88;92.79;97796.70;108073;1277;72954;-79
2022/02/17 00:05:02;;;;;;;1.50;0.60;;;;;;;10.88;91.88;97832.17;108322;1274;63075;-81
2022/02/17 00:07:28;;;;;;;2.10;0.60;;;;;;;10.82;92.25;97807.60;108293;1267;60295;-82
2022/02/17 00:09:55;;;;;;;1.10;0.60;;;;;;;10.73;91.75;97812.90;108290;1277;58670;-78
2022/02/17 00:12:21;;;;;;;0.70;0.40;;;;;;;10.66;92.55;97846.31;108233;1275;58380;-77
2022/02/17 00:14:48;;;;;;;2.80;0.50;;;;;;;10.48;93.16;97862.68;108231;1276;58576;-79
2022/02/17 00:17:14;;;;;;;0.40;0.30;;;;;;;10.26;94.74;97840.56;108275;1276;58381;-80
2022/02/17 00:19:41;;;;;;;1.80;0.70;;;;;;;10.08;96.78;97850.86;108299;1276;58370;-82
2022/02/17 00:22:07;;;;;;;1.80;0.50;;;;;;;9.95;97.80;97851.37;108280;1275;59473;-82
2022/02/17 00:24:34;;;;;;;3.00;0.90;;;;;;;9.91;97.49;97873.96;108198;1276;57739;-82
2022/02/17 00:27:02;;;;;;;0.90;0.50;;;;;;;9.93;96.78;97867.42;108313;1276;58615;-80
2022/02/17 00:29:29;;;;;;;2.20;0.70;;;;;;;9.97;96.56;97897.38;108301;1276;62021;-80
2022/02/17 00:31:55;;;;;;;6.80;1.00;;;;;;;10.03;95.99;97901.59;108286;1276;61644;-80
2022/02/17 00:34:22;;;;;;;1.20;0.50;;;;;;;10.04;96.03;97911.35;108268;1275;57957;-79
2022/02/17 00:36:48;;;;;;;2.70;0.70;;;;;;;10.08;94.31;97941.77;108239;1277;59257;-79
2022/02/17 00:39:14;;;;;;;3.70;1.10;;;;;;;10.13;88.92;97923.20;108270;1276;58435;-79
2022/02/17 00:41:41;;;;;;;2.60;0.90;;;;;;;10.17;84.65;97924.77;108266;1276;58439;-79
2022/02/17 00:44:07;;;;;;;3.70;0.90;;;;;;;10.15;84.25;97925.52;108277;1276;57758;-79
2022/02/17 00:46:34;;;;;;;2.90;0.90;;;;;;;10.10;85.04;97937.15;108213;1277;59033;-80
2022/02/17 00:49:01;;;;;;;4.50;0.90;;;;;;;10.08;85.94;97941.82;108088;1277;71167;-80
2022/02/17 00:51:27;;;;;;;0.90;0.40;;;;;;;10.13;87.10;97963.38;108059;1277;58503;-81
2022/02/17 00:53:54;;;;;;;3.10;0.80;;;;;;;10.23;87.96;97959.50;108179;1276;59242;-80
2022/02/17 00:56:20;;;;;;;8.60;1.10;;;;;;;10.31;87.45;97947.17;108088;1277;58276;-79
2022/02/17 00:58:47;;;;;;;4.50;0.90;;;;;;;10.36;87.15;97927.69;108109;1277;59029;-79
2022/02/17 01:01:13;;;;;;;3.70;0.60;;;;;;;10.38;86.93;97945.89;108172;1276;58592;-81
2022/02/17 01:03:40;;;;;;;5.60;0.80;;;;;;;10.39;86.70;97928.84;108209;1276;58968;-79
2022/02/17 01:06:06;;;;;;;2.30;0.50;;;;;;;10.38;85.71;97928.09;108224;1276;61998;-81
2022/02/17 01:08:33;;;;;;;3.90;0.60;;;;;;;10.34;85.43;97923.41;108159;1277;58450;-80
2022/02/17 01:10:59;;;;;;;5.60;0.70;;;;;;;10.31;83.61;97942.55;108052;1277;75162;-80
2022/02/17 01:13:27;;;;;;;2.20;0.80;;;;;;;10.32;82.14;97947.39;108355;1276;71785;-80
2022/02/17 01:15:53;;;;;;;6.60;1.50;;;;;;;10.34;80.09;97945.98;108267;1277;74046;-82
2022/02/17 01:18:20;;;;;;;6.40;1.00;;;;;;;10.33;78.60;97941.58;108306;1276;57696;-80
2022/02/17 01:20:46;;;;;;;7.00;1.70;;;;;;;10.36;75.56;97952.80;108163;1277;57768;-81
2022/02/17 01:23:13;;;;;;;4.40;1.10;;;;;;;10.40;74.72;97930.23;108302;1277;59964;-80
2022/02/17 01:25:41;;;;;;;4.40;0.70;;;;;;;10.37;74.08;97927.98;108211;1277;72335;-81
2022/02/17 01:28:07;;;;;;;6.10;1.20;;;;;;;10.36;72.74;97917.04;108275;1277;73123;-80
2022/02/17 01:30:34;;;;;;;3.60;0.70;;;;;;;10.38;72.43;97919.23;108280;1277;58314;-80
2022/02/17 01:33:02;;;;;;;4.20;0.90;;;;;;;10.37;72.42;97907.03;108202;1275;61361;-81
2022/02/17 01:35:28;;;;;;;7.20;2.10;;;;;;;10.36;72.11;97894.88;108116;1275;75172;-79
2022/02/17 01:37:55;;;;;;;5.10;0.90;;;;;;;10.39;70.63;97897.56;108242;1276;72988;-81
2022/02/17 01:40:22;;;;;;;3.60;0.60;;;;;;;10.45;69.94;97874.02;108016;1276;73001;-80
2022/02/17 01:42:48;;;;;;;7.50;1.10;;;;;;;10.46;70.34;97877.42;108286;1276;60912;-79
2022/02/17 01:45:15;;;;;;;7.70;1.40;;;;;;;10.47;69.14;97895.98;108125;1277;60478;-78
2022/02/17 01:47:48;;;;;;;6.00;1.20;;;;;;;10.51;68.82;97887.40;108261;1271;59152;-81
2022/02/17 01:50:15;;;;;;;5.10;1.30;;;;;;;10.53;68.97;97902.66;108206;1276;70560;-79
2022/02/17 01:52:42;;;;;;;6.60;1.20;;;;;;;10.57;68.00;97924.14;108320;1276;72983;-81
2022/02/17 01:55:08;;;;;;;6.80;1.60;;;;;;;10.64;67.62;97946.13;108369;1275;62994;-81
2022/02/17 01:57:35;;;;;;;5.90;0.90;;;;;;;10.66;67.87;97913.44;108273;1274;61655;-79
2022/02/17 02:00:04;;;;;;;5.20;1.20;;;;;;;10.64;68.04;97929.48;108220;1276;75258;-79
2022/02/17 02:02:31;;;;;;;8.10;1.30;;;;;;;10.67;67.30;97924.10;108252;1276;72200;-81
2022/02/17 02:04:57;;;;;;;6.30;1.50;;;;;;;10.55;69.94;97935.34;108137;1275;59318;-79
2022/02/17 02:07:24;;;;;;;6.70;1.10;;;;;;;10.25;72.14;97924.11;108287;1276;62310;-79
2022/02/17 02:09:53;;;;;;;7.30;1.10;;;;;;;10.04;73.76;97925.07;108327;1276;60297;-81
2022/02/17 02:12:20;;;;;;;9.70;1.20;;;;;;;9.84;74.36;97927.23;108086;1265;73903;-81
2022/02/17 02:14:54;;;;;;;8.50;1.30;;;;;;;9.69;74.99;97904.77;108078;1277;71181;-80
2022/02/17 02:17:24;;;;;;;6.00;1.10;;;;;;;9.58;74.87;97894.25;108193;1276;73021;-80
2022/02/17 02:19:56;;;;;;;5.60;1.30;;;;;;;9.54;72.91;97896.05;107971;1277;63431;-80
2022/02/17 02:22:28;;;;;;;5.80;1.30;;;;;;;9.62;69.63;97858.38;108137;1277;60766;-80
2022/02/17 02:24:58;;;;;;;6.70;1.50;;;;;;;9.68;67.70;97888.52;108193;1277;75068;-78
2022/02/17 02:27:26;;;;;;;4.60;1.00;;;;;;;9.74;67.38;97871.14;108168;1276;71328;-79
2022/02/17 02:29:54;;;;;;;2.20;0.60;;;;;;;9.75;65.87;97888.20;108181;1277;74211;-79
2022/02/17 02:32:20;;;;;;;8.90;1.00;;;;;;;9.81;64.88;97880.51;108190;1277;61942;-78
2022/02/17 02:34:47;;;;;;;5.40;1.50;;;;;;;9.83;64.58;97888.77;108119;1277;60702;-79
2022/02/17 02:37:14;;;;;;;9.90;2.50;;;;;;;9.86;64.06;97863.48;108096;1277;58931;-80
2022/02/17 02:39:40;;;;;;;4.90;1.60;;;;;;;9.85;64.58;97855.75;108203;1277;58452;-79
2022/02/17 02:42:07;;;;;;;9.30;1.70;;;;;;;9.82;64.42;97880.69;108145;1277;58169;-79
2022/02/17 02:44:34;;;;;;;5.10;1.20;;;;;;;9.84;64.65;97879.17;108204;1277;60337;-80
2022/02/17 02:47:00;;;;;;;5.50;0.90;;;;;;;9.83;65.07;97866.52;108079;1277;59620;-82
2022/02/17 02:49:27;;;;;;;5.80;1.20;;;;;;;9.81;65.18;97884.16;108196;1277;75211;-79
2022/02/17 02:51:54;;;;;;;5.90;1.20;;;;;;;9.85;65.53;97877.77;108121;1277;71167;-79
2022/02/17 02:54:20;;;;;;;4.30;1.20;;;;;;;9.87;65.34;97884.07;108111;1277;58247;-78
2022/02/17 02:56:47;;;;;;;6.30;1.60;;;;;;;9.88;65.70;97886.57;107873;1277;63528;-78
2022/02/17 02:59:13;;;;;;;3.50;0.90;;;;;;;9.93;65.46;97911.48;108155;1275;58257;-77
2022/02/17 03:01:40;;;;;;;8.20;1.80;;;;;;;9.96;65.90;97913.27;108111;1277;58483;-78
2022/02/17 03:04:06;;;;;;;5.40;1.10;;;;;;;9.95;66.46;97911.41;108065;1277;58380;-78
2022/02/17 03:06:32;;;;;;;5.70;1.80;;;;;;;9.97;66.00;97903.82;108106;1277;57672;-79
2022/02/17 03:08:59;;;;;;;6.50;1.10;;;;;;;10.02;65.81;97922.08;108008;1277;58430;-78
2022/02/17 03:11:26;;;;;;;7.40;1.30;;;;;;;10.05;65.74;97945.33;108078;1277;59181;-79
2022/02/17 03:13:52;;;;;;;3.60;1.00;;;;;;;10.08;65.69;97948.81;107963;1277;58641;-80
2022/02/17 03:16:19;;;;;;;8.70;1.30;;;;;;;9.90;65.77;97988.55;108096;1277;58919;-79
2022/02/17 03:18:45;;;;;;;3.50;0.70;;;;;;;9.63;66.28;97973.06;108114;1277;58275;-79
2022/02/17 03:21:11;;;;;;;3.00;0.90;;;;;;;9.40;67.13;97980.65;108115;1277;58368;-79
2022/02/17 03:23:38;;;;;;;6.10;0.80;;;;;;;9.20;68.29;97979.23;108134;1277;59002;-78
2022/02/17 03:26:04;;;;;;;4.10;1.20;;;;;;;9.06;69.36;97979.52;108095;1277;58839;-78
2022/02/17 03:28:31;;;;;;;2.50;0.60;;;;;;;8.88;70.38;97986.00;107938;1277;59046;-78
2022/02/17 03:30:57;;;;;;;3.30;0.90;;;;;;;8.73;71.48;97999.48;108076;1278;58300;-78
2022/02/17 03:33:24;;;;;;;4.90;0.80;;;;;;;8.60;72.43;97992.13;108078;1277;58601;-78
2022/02/17 03:35:50;;;;;;;7.70;1.30;;;;;;;8.53;72.27;98013.63;108083;1277;58377;-78
2022/02/17 03:38:17;;;;;;;4.90;0.90;;;;;;;8.57;71.81;97988.80;108154;1277;57696;-79
2022/02/17 03:40:43;;;;;;;5.70;1.30;;;;;;;8.56;71.36;98002.11;108141;1277;58407;-78
2022/02/17 03:43:10;;;;;;;7.50;1.50;;;;;;;8.69;69.07;98024.63;108145;1277;58340;-79
2022/02/17 03:45:36;;;;;;;5.00;1.40;;;;;;;8.72;70.61;98004.47;108108;1277;58340;-78
2022/02/17 03:48:03;;;;;;;6.90;1.10;;;;;;;8.69;68.93;98067.45;108139;1277;58202;-78
2022/02/17 03:50:29;;;;;;;10.70;2.20;;;;;;;8.80;66.60;98052.23;108132;1276;58433;-79
2022/02/17 03:52:56;;;;;;;11.90;2.70;;;;;;;8.91;65.06;98051.80;108078;1277;58618;-78
2022/02/17 03:55:22;;;;;;;6.40;1.30;;;;;;;9.02;62.43;98094.26;108019;1277;59076;-76
2022/02/17 03:57:48;;;;;;;6.40;1.80;;;;;;;9.14;60.83;98088.09;108093;1277;58765;-76
2022/02/17 04:00:15;;;;;;;4.10;1.30;;;;;;;9.21;59.37;98089.65;108130;1277;58604;-76
2022/02/17 04:02:41;;;;;;;7.40;1.10;;;;;;;9.25;58.76;98103.88;108146;1277;58353;-77
2022/02/17 04:05:08;;;;;;;11.10;1.70;;;;;;;9.26;58.59;98135.45;108078;1277;59083;-77
2022/02/17 04:07:36;;;;;;;5.80;1.40;;;;;;;9.27;58.72;98134.13;108125;1274;58636;-77
2022/02/17 04:10:03;;;;;;;7.90;1.60;;;;;;;9.24;59.29;98104.43;108096;1276;60366;-76
2022/02/17 04:12:30;;;;;;;7.60;1.90;;;;;;;9.17;59.82;98135.34;108103;1277;60557;-77
2022/02/17 04:14:56;;;;;;;7.10;2.40;;;;;;;9.13;59.51;98125.72;108111;1277;58210;-78
2022/02/17 04:17:23;;;;;;;9.00;1.60;;;;;;;9.13;59.49;98122.81;108119;1277;59448;-77
2022/02/17 04:19:50;;;;;;;7.00;1.50;;;;;;;9.12;59.16;98151.35;108095;1277;72511;-78
2022/02/17 04:22:16;;;;;;;6.60;1.70;;;;;;;9.12;59.90;98136.85;108099;1277;60329;-77
2022/02/17 04:24:43;;;;;;;5.70;1.40;;;;;;;9.10;59.80;98167.80;108020;1279;59633;-76
2022/02/17 04:27:10;;;;;;;7.00;1.70;;;;;;;9.12;59.79;98149.44;108022;1277;73954;-77
2022/02/17 04:29:36;;;;;;;14.10;1.80;;;;;;;9.10;59.98;98144.36;108072;1277;70348;-76
2022/02/17 04:32:05;;;;;;;6.20;1.40;;;;;;;9.07;59.55;98157.93;108115;1277;73012;-77
2022/02/17 04:34:31;;;;;;;11.70;1.30;;;;;;;9.04;59.33;98144.11;108068;1277;60877;-77
2022/02/17 04:36:58;;;;;;;4.00;1.00;;;;;;;9.04;58.02;98180.67;108035;1277;59944;-77
2022/02/17 04:39:24;;;;;;;7.60;1.40;;;;;;;9.04;59.04;98165.05;108130;1277;58733;-78
2022/02/17 04:44:36;;;;;;;;;;;;;;;8.95;58.62;98180.50;108120;1277;73008;-77
2022/02/17 04:47:03;;;;;;;6.60;1.70;;;;;;;8.95;58.04;98189.55;108083;1277;58213;-76
2022/02/17 04:49:29;;;;;;;12.20;1.60;;;;;;;8.96;57.77;98215.00;108151;1277;60376;-77
2022/02/17 04:51:55;;;;;;;6.20;2.00;;;;;;;8.96;58.01;98191.84;108049;1277;58519;-78
2022/02/17 04:54:22;;;;;;;4.70;1.00;;;;;;;8.92;58.50;98199.52;108162;1277;58196;-76
2022/02/17 04:56:48;;;;;;;7.50;2.10;;;;;;;8.85;58.43;98181.69;108140;1277;72654;-77
2022/02/17 04:59:15;;;;;;;7.90;1.50;;;;;;;8.78;58.45;98196.63;108160;1277;58257;-77
2022/02/17 05:01:42;;;;;;;6.90;1.40;;;;;;;8.72;58.95;98205.86;108158;1277;58619;-77
2022/02/17 05:04:08;;;;;;;7.90;1.40;;;;;;;8.71;58.57;98223.39;108151;1277;59071;-77
2022/02/17 05:06:34;;;;;;;6.70;1.70;;;;;;;8.73;57.53;98218.37;108097;1277;58875;-76
2022/02/17 05:09:02;;;;;;;8.60;1.80;;;;;;;8.74;58.30;98205.88;108149;1277;58788;-77
2022/02/17 05:11:28;;;;;;;9.90;1.60;;;;;;;8.68;58.58;98206.02;107846;1277;60368;-77
2022/02/17 05:13:55;;;;;;;12.50;1.90;;;;;;;8.67;57.89;98208.89;108161;1277;58225;-78
2022/02/17 05:16:21;;;;;;;6.60;1.50;;;;;;;8.67;57.50;98221.34;108136;1277;58750;-78
2022/02/17 05:18:48;;;;;;;8.30;1.70;;;;;;;8.65;57.37;98240.10;108124;1277;70830;-77
2022/02/17 05:21:14;;;;;;;7.70;1.50;;;;;;;8.64;57.03;98221.09;108144;1277;59534;-77
2022/02/17 05:23:41;;;;;;;7.70;1.60;;;;;;;8.66;56.74;98225.58;108146;1277;57852;-78
2022/02/17 05:26:07;;;;;;;6.50;1.50;;;;;;;8.68;56.78;98230.39;108115;1277;59274;-77
2022/02/17 05:28:33;;;;;;;7.30;1.60;;;;;;;8.69;57.16;98227.89;108176;1277;58420;-78
2022/02/17 05:31:00;;;;;;;9.90;1.60;;;;;;;8.67;57.47;98228.13;108015;1277;59985;-78
2022/02/17 05:33:26;;;;;;;12.90;1.90;;;;;;;8.65;57.11;98231.73;108158;1277;58177;-76
2022/02/17 05:35:53;;;;;;;12.20;2.40;;;;;;;8.61;57.34;98219.25;108137;1277;59266;-77
2022/02/17 05:38:22;;;;;;;7.80;1.10;;;;;;;8.60;56.82;98255.73;108032;1277;60583;-76
2022/02/17 05:40:48;;;;;;;5.30;1.40;;;;;;;8.60;56.61;98233.82;108119;1277;74107;-77
2022/02/17 05:43:15;;;;;;;9.60;2.50;;;;;;;8.55;57.04;98243.42;108124;1277;71542;-77
2022/02/17 05:45:42;;;;;;;8.80;2.00;;;;;;;8.55;56.53;98268.59;108116;1277;73835;-78
2022/02/17 05:48:08;;;;;;;3.30;1.20;;;;;;;8.58;56.86;98255.02;108125;1277;58218;-77
2022/02/17 05:50:35;;;;;;;10.10;2.10;;;;;;;8.52;57.00;98240.47;108093;1277;58429;-76
2022/02/17 05:53:02;;;;;;;8.90;1.40;;;;;;;8.53;55.96;98301.43;108078;1277;74133;-77
2022/02/17 05:55:29;;;;;;;8.00;1.40;;;;;;;8.57;56.34;98285.13;108112;1277;72907;-79
2022/02/17 05:57:56;;;;;;;11.30;1.60;;;;;;;8.57;56.17;98277.36;108108;1275;74196;-79
2022/02/17 06:00:23;;;;;;;9.40;2.30;;;;;;;8.52;56.54;98278.52;108078;1277;59642;-78
2022/02/17 06:02:50;;;;;;;4.60;1.10;;;;;;;8.49;55.95;98293.18;108062;1277;58255;-78
2022/02/17 06:05:16;;;;;;;5.20;2.00;;;;;;;8.51;55.95;98302.95;108039;1277;75441;-81
2022/02/17 06:07:44;;;;;;;9.80;1.60;;;;;;;8.50;56.54;98291.59;107873;1277;71400;-81
2022/02/17 06:10:11;;;;;;;5.20;1.10;;;;;;;8.46;56.49;98283.63;108047;1277;71995;-78
2022/02/17 06:12:45;;;;;;;9.00;1.70;;;;;;;8.40;57.06;98298.92;107891;1278;59531;-80
2022/02/17 06:15:14;;;;;;;4.80;1.30;;;;;;;8.41;56.16;98321.52;108108;1277;60543;-78
2022/02/17 06:17:41;;;;;;;8.30;2.30;;;;;;;8.43;56.27;98340.71;108084;1277;74106;-79
2022/02/17 06:20:08;;;;;;;5.70;1.10;;;;;;;8.45;55.37;98361.87;108112;1277;58410;-79
2022/02/17 06:22:49;;;;;;;10.00;1.40;;;;;;;8.48;55.11;98388.80;107874;1277;71989;-77
2022/02/17 06:25:19;;;;;;;6.20;1.50;;;;;;;8.49;55.62;98385.33;107957;1277;59902;-78
2022/02/17 06:27:47;;;;;;;14.90;1.90;;;;;;;8.45;56.10;98350.57;108132;1277;61208;-77
2022/02/17 06:30:15;;;;;;;3.90;1.20;;;;;;;8.46;55.75;98351.27;108144;1277;73838;-77
2022/02/17 06:32:59;;;;;;;11.20;1.50;;;;;;;8.45;56.48;98358.25;108125;1277;69965;-79
2022/02/17 06:35:30;;;;;;;10.30;1.80;;;;;;;8.43;56.57;98393.56;107986;1277;73428;-78
2022/02/17 06:37:59;;;;;;;5.80;1.10;;;;;;;8.44;56.56;98447.70;108102;1277;59791;-78
2022/02/17 06:40:26;;;;;;;10.40;2.10;;;;;;;8.43;56.73;98387.75;108160;1277;61633;-81
2022/02/17 06:42:53;;;;;;;7.50;1.20;;;;;;;8.41;57.10;98392.39;108003;1277;75279;-77
2022/02/17 06:45:20;;;;;;;9.50;1.90;;;;;;;8.38;57.53;98415.31;108100;1277;58279;-78
2022/02/17 06:47:46;;;;;;;5.90;1.50;;;;;;;8.39;57.24;98452.16;108079;1277;72708;-77
2022/02/17 06:50:16;;;;;;;8.40;1.40;;;;;;;8.39;57.46;98437.16;108080;1277;60754;-77
2022/02/17 06:52:43;;;;;;;7.60;1.40;;;;;;;8.38;57.90;98422.86;108079;1277;60284;-78
2022/02/17 06:55:10;;;;;;;1.00;0.40;;;;;;;8.37;58.12;98419.71;108110;1277;58795;-77
2022/02/17 06:57:36;;;;;;;5.70;1.60;;;;;;;8.32;58.04;98441.02;107988;1277;71337;-79
2022/02/17 07:00:03;;;;;;;3.30;0.90;;;;;;;8.32;58.02;98431.59;108076;1277;58343;-78
2022/02/17 07:02:33;;;;;;;7.90;2.10;;;;;;;8.29;58.63;98439.73;108106;1277;59853;-77
2022/02/17 07:05:01;;;;;;;6.60;1.60;;;;;;;8.29;56.23;98476.43;107969;1277;60643;-80
2022/02/17 07:07:28;;;;;;;7.70;1.60;;;;;;;8.33;56.87;98452.14;107761;1277;74172;-80
2022/02/17 07:09:55;;;;;;;12.30;2.00;;;;;;;8.32;56.23;98477.35;108031;1278;71638;-80
2022/02/17 07:12:21;;;;;;;28.40;2.90;;;;;;;8.34;56.39;98484.03;108084;1277;74257;-79
2022/02/17 07:14:51;;;;;;;9.50;1.30;;;;;;;8.36;56.58;98491.41;108222;1277;59527;-78
2022/02/17 07:17:21;;;;;;;4.80;1.30;;;;;;;8.33;56.98;98468.30;108012;1280;61895;-79
2022/02/17 07:19:47;;;;;;;4.90;1.10;;;;;;;8.30;56.69;98501.59;108370;1277;75186;-80
2022/02/17 07:22:14;;;;;;;5.70;1.70;;;;;;;8.28;57.09;98498.19;108322;1277;59419;-79
2022/02/17 07:24:40;;;;;;;6.80;1.00;;;;;;;8.26;57.35;98521.16;108378;1277;58319;-79
2022/02/17 07:27:07;;;;;;;12.90;1.10;;;;;;;8.25;57.15;98505.12;108010;1280;59557;-80
2022/02/17 07:29:36;;;;;;;6.40;1.10;;;;;;;8.24;57.95;98528.31;108150;1277;61226;-79
2022/02/17 07:32:07;;;;;;;9.60;1.80;;;;;;;8.22;57.65;98536.25;108153;1277;74064;-79
2022/02/17 07:34:34;;;;;;;5.80;1.40;;;;;;;8.22;58.28;98546.73;108305;1277;71066;-78
2022/02/17 07:37:00;;;;;;;6.50;1.10;;;;;;;8.21;57.99;98565.36;108304;1277;71760;-81
2022/02/17 07:39:27;;;;;;;4.40;1.50;;;;;;;8.21;57.83;98546.99;108156;1277;261746;-78
2022/02/17 07:41:53;;;;;;;7.90;1.70;;;;;;;8.20;58.25;98549.63;108313;1277;58505;-78
2022/02/17 07:44:25;;;;;;;10.50;1.40;;;;;;;8.17;57.79;98582.15;108161;1279;58400;-77
2022/02/17 07:46:52;;;;;;;6.20;1.00;;;;;;;8.18;57.59;98586.29;108342;1277;71339;-80
2022/02/17 07:49:19;;;;;;;8.30;1.60;;;;;;;8.19;57.85;98558.16;108352;1277;72736;-79
2022/02/17 07:51:45;;;;;;;8.50;1.20;;;;;;;8.16;57.83;98599.43;108082;1280;59023;-79
2022/02/17 07:54:14;;;;;;;10.00;2.40;;;;;;;8.16;57.98;98582.89;108369;1277;60339;-79
2022/02/17 07:56:40;;;;;;;4.50;1.00;;;;;;;8.14;57.70;98627.15;108173;1279;72297;-78
2022/02/17 07:59:06;;;;;;;12.30;1.20;;;;;;;8.15;57.99;98625.73;108320;1277;72873;-79
2022/02/17 08:01:33;;;;;;;8.90;1.60;;;;;;;8.13;57.36;98625.48;107951;1277;58351;-79
2022/02/17 08:03:59;;;;;;;6.40;1.60;;;;;;;8.12;57.26;98624.35;108378;1277;58236;-78
2022/02/17 08:06:26;;;;;;;7.90;1.30;;;;;;;8.11;57.46;98647.76;108176;1277;58310;-80
2022/02/17 08:08:54;;;;;;;5.40;1.70;;;;;;;8.12;57.29;98633.42;108324;1277;74138;-79
2022/02/17 08:11:20;;;;;;;10.00;1.60;;;;;;;8.11;57.58;98646.74;108134;1277;72396;-78
2022/02/17 08:13:47;;;;;;;6.20;1.50;;;;;;;8.12;56.91;98642.39;108416;1277;58334;-80
2022/02/17 08:16:14;;;;;;;7.70;1.50;;;;;;;8.11;58.01;98661.68;108125;1277;60271;-81
2022/02/17 08:18:40;;;;;;;5.40;1.50;;;;;;;8.01;59.05;98684.15;108359;1277;62715;-80
2022/02/17 08:21:27;;;;;;;4.60;1.20;;;;;;;7.99;59.11;98667.59;108200;1277;75881;-81
2022/02/17 08:23:53;;;;;;;7.20;1.80;;;;;;;8.01;58.88;98668.43;108073;1277;58468;-77
2022/02/17 08:26:21;;;;;;;6.10;1.40;;;;;;;8.04;58.18;98702.30;108281;1277;74319;-79
2022/02/17 08:28:48;;;;;;;8.90;1.70;;;;;;;8.09;57.86;98681.93;108279;1277;58473;-79
2022/02/17 08:31:15;;;;;;;6.80;1.30;;;;;;;8.12;58.32;98692.52;108266;1277;60263;-78
2022/02/17 08:33:41;;;;;;;6.40;1.40;;;;;;;8.15;58.27;98696.73;108339;1277;58293;-80
2022/02/17 08:36:08;;;;;;;8.90;1.40;;;;;;;8.17;58.21;98717.61;108275;1277;58281;-79
2022/02/17 08:38:34;;;;;;;6.30;1.70;;;;;;;8.22;58.10;98717.33;108312;1277;58389;-80
2022/02/17 08:41:01;;;;;;;5.70;1.60;;;;;;;8.29;57.85;98705.06;108300;1277;58377;-78
2022/02/17 08:43:28;;;;;;;5.70;1.70;;;;;;;8.35;57.69;98713.52;108339;1277;60601;-79
2022/02/17 08:45:54;;;;;;;8.80;1.60;;;;;;;8.46;56.43;98738.04;108354;1277;74257;-78
2022/02/17 08:48:20;;;;;;;5.60;1.20;;;;;;;8.50;56.93;98732.05;108316;1277;58469;-79
2022/02/17 08:50:47;;;;;;;10.30;2.00;;;;;;;8.47;57.03;98751.29;108304;1277;58779;-79
2022/02/17 08:53:14;;;;;;;17.10;2.00;;;;;;;8.41;57.56;98758.13;108310;1277;59511;-77
2022/02/17 08:55:51;;;;;;;5.50;1.10;;;;;;;8.31;58.69;98737.98;108325;1277;60901;-80
2022/02/17 08:58:17;;;;;;;6.90;1.60;;;;;;;8.27;59.04;98743.55;108341;1277;74110;-79
2022/02/17 09:00:45;;;;;;;4.80;1.70;;;;;;;8.23;58.26;98779.90;108317;1277;72928;-81
2022/02/17 09:03:12;;;;;;;7.40;1.50;;;;;;;8.19;58.63;98782.83;108100;1277;72636;-80
2022/02/17 09:05:41;;;;;;;8.60;2.00;;;;;;;7.98;61.84;98808.67;108304;1277;60839;-81
2022/02/17 09:08:28;;;;;;;8.10;1.30;;;;;;;7.84;61.50;98826.30;108025;1277;61233;-79
2022/02/17 09:10:56;;;;;;;6.70;2.00;;;;;;;7.87;61.05;98805.38;108064;1277;74135;-81
2022/02/17 09:13:23;;;;;;;9.20;1.80;;;;;;;7.61;66.14;98845.11;108305;1277;71385;-82
2022/02/17 09:15:50;;;;;;;10.10;1.60;;;;;;;7.09;68.81;98816.27;108126;1277;71663;-83
2022/02/17 09:18:17;;;;;;;6.20;1.80;;;;;;;7.03;68.82;98810.21;108320;1277;62189;-81
2022/02/17 09:20:44;;;;;;;3.20;1.00;;;;;;;7.14;67.78;98800.59;108064;1278;61632;-80
2022/02/17 09:23:11;;;;;;;6.90;1.40;;;;;;;7.29;66.94;98824.45;108311;1277;73552;-81
2022/02/17 09:25:38;;;;;;;10.00;1.10;;;;;;;7.39;64.62;98844.30;107988;1277;74020;-81
2022/02/17 09:28:06;;;;;;;6.40;1.00;;;;;;;7.43;65.35;98837.86;108322;1277;58477;-81
2022/02/17 09:30:33;;;;;;;5.60;1.20;;;;;;;7.38;65.99;98844.60;107911;1278;61188;-82
2022/02/17 09:32:59;;;;;;;8.70;2.80;;;;;;;7.40;65.41;98855.75;108235;1277;58215;-82
2022/02/17 09:35:26;;;;;;;7.80;1.60;;;;;;;7.47;65.73;98848.46;108274;1277;74475;-82
2022/02/17 09:37:52;;;;;;;3.70;1.00;;;;;;;7.57;64.90;98875.71;108298;1277;71485;-80
2022/02/17 09:40:20;;;;;;;8.20;1.70;;;;;;;7.69;64.17;98854.83;108221;1277;73108;-80
2022/02/17 09:42:47;;;;;;;7.80;1.50;;;;;;;7.92;62.35;98871.09;108235;1277;59970;-79
2022/02/17 09:45:14;;;;;;;3.90;1.20;;;;;;;8.18;61.40;98858.33;107961;1280;61675;-80
2022/02/17 09:47:42;;;;;;;5.30;1.00;;;;;;;8.34;60.08;98864.09;108260;1277;74928;-80
2022/02/17 09:50:12;;;;;;;9.70;2.00;;;;;;;8.42;59.80;98863.66;108109;1279;71315;-78
2022/02/17 09:52:39;;;;;;;3.70;1.30;;;;;;;8.39;58.34;98881.02;107755;1281;74285;-78
2022/02/17 09:55:08;;;;;;;10.60;1.30;;;;;;;8.41;57.03;98929.30;108018;1278;60378;-80
2022/02/17 09:57:37;;;;;;;6.30;1.60;;;;;;;8.38;57.66;98893.39;108308;1277;60344;-78
2022/02/17 10:00:09;;;;;;;7.20;1.10;;;;;;;8.39;58.43;98908.27;108218;1277;74998;-77
2022/02/17 10:02:35;;;;;;;3.70;1.10;;;;;;;8.32;58.02;98947.29;108078;1277;72596;-80
2022/02/17 10:05:05;;;;;;;8.20;1.50;;;;;;;8.30;58.91;98920.66;108122;1277;73732;-78
2022/02/17 10:07:36;;;;;;;4.70;1.00;;;;;;;8.27;59.64;98935.50;108364;1277;59776;-76
2022/02/17 10:10:07;;;;;;;6.90;1.50;;;;;;;8.23;60.88;98953.63;108326;1277;61260;-79
2022/02/17 10:12:55;;;;;;;4.80;1.20;;;;;;;8.25;60.92;98956.30;108163;1279;75713;-79
2022/02/17 10:15:25;;;;;;;5.60;1.40;;;;;;;8.33;61.65;98943.19;108071;1280;72150;-79
2022/02/17 10:17:59;;;;;;;2.90;1.10;;;;;;;8.49;61.28;99045.62;108196;1279;74107;-78
2022/02/17 10:20:26;;;;;;;6.20;1.50;;;;;;;8.39;61.34;98997.54;107959;1279;59606;-82
2022/02/17 10:23:05;;;;;;;5.90;1.30;;;;;;;8.28;62.53;98994.02;108230;1279;60425;-80
2022/02/17 10:25:31;;;;;;;5.10;1.20;;;;;;;8.26;63.15;99024.55;107997;1278;74324;-79
2022/02/17 10:28:11;;;;;;;7.40;1.60;;;;;;;7.97;64.30;99032.21;108016;1278;71113;-79
2022/02/17 10:30:40;;;;;;;6.20;1.20;;;;;;;7.80;65.58;99030.04;107966;1279;72045;-78
2022/02/17 10:33:08;;;;;;;2.50;0.70;;;;;;;7.71;66.37;99022.66;108283;1277;59878;-81
2022/02/17 10:35:35;;;;;;;5.20;1.10;;;;;;;7.70;66.36;99025.98;108051;1280;60289;-79
2022/02/17 10:38:05;;;;;;;15.40;1.60;;;;;;;7.72;65.64;99033.27;108200;1277;75265;-80
2022/02/17 10:40:34;;;;;;;8.90;1.70;;;;;;;7.80;65.22;99032.47;107879;1280;72888;-79
2022/02/17 10:43:12;;;;;;;9.60;1.90;;;;;;;7.89;65.14;99020.20;108178;1277;71087;-79
2022/02/17 10:45:45;;;;;;;5.70;1.40;;;;;;;7.91;62.89;99037.38;108052;1280;59692;-78
2022/02/17 10:48:26;;;;;;;5.30;1.40;;;;;;;8.04;62.72;99023.96;108201;1278;61669;-82
2022/02/17 10:51:09;;;;;;;8.40;1.40;;;;;;;8.19;60.72;99047.86;108129;1278;74245;-79
2022/02/17 10:53:42;;;;;;;6.20;1.70;;;;;;;8.30;60.14;99066.21;108163;1277;71394;-79
2022/02/17 10:56:14;;;;;;;6.30;1.20;;;;;;;8.46;58.95;99055.87;108111;1279;75018;-80
2022/02/17 10:58:46;;;;;;;6.80;1.50;;;;;;;8.58;58.88;99076.83;108105;1279;60870;-77
2022/02/17 11:01:15;;;;;;;7.20;1.90;;;;;;;8.61;58.62;99047.66;108149;1277;61789;-79
2022/02/17 11:03:42;;;;;;;4.40;1.10;;;;;;;8.64;59.13;99051.85;108214;1278;73623;-81
2022/02/17 11:06:13;;;;;;;9.30;2.40;;;;;;;8.63;59.23;99084.05;108130;1280;72377;-80
2022/02/17 11:08:40;;;;;;;13.20;1.60;;;;;;;8.53;59.49;99073.04;107877;1280;72945;-79
2022/02/17 11:11:09;;;;;;;5.20;1.10;;;;;;;8.52;59.25;99064.85;108170;1279;61817;-81
2022/02/17 11:13:36;;;;;;;7.80;1.80;;;;;;;8.48;58.81;99103.47;108201;1280;60444;-79
2022/02/17 11:16:09;;;;;;;14.30;2.60;;;;;;;8.38;59.09;99070.55;108324;1277;75257;-77
2022/02/17 11:18:38;;;;;;;4.80;1.50;;;;;;;8.23;59.06;99112.04;108143;1277;71493;-80
2022/02/17 11:21:04;;;;;;;6.40;1.20;;;;;;;8.19;58.96;99086.05;108107;1277;73088;-78
2022/02/17 11:23:35;;;;;;;5.20;1.40;;;;;;;8.21;60.19;99083.91;108323;1277;58213;-81
2022/02/17 11:26:17;;;;;;;8.70;1.50;;;;;;;8.14;60.56;99112.90;108377;1277;60326;-81
2022/02/17 11:28:44;;;;;;;5.60;1.30;;;;;;;8.12;60.00;99128.98;108340;1277;75166;-77
2022/02/17 11:31:12;;;;;;;10.60;1.20;;;;;;;8.30;58.71;99131.65;107986;1277;71242;-79
2022/02/17 11:33:41;;;;;;;8.70;1.20;;;;;;;8.41;58.83;99109.63;108382;1276;72814;-81
2022/02/17 11:36:07;;;;;;;5.40;1.50;;;;;;;8.49;57.82;99126.38;108033;1279;61184;-80